Terminal Aerodrome Forecast
Issued by NWS

Home | Current Version | Previous Version | Text Only | Print | Product List | Glossary Off
Versions: 1 2 3 4 5 6 7 8 9 10 11 12 13 14 15 16 17 18

000
FTUS43 KMPX 191400 AAA
TAFRNH
TAF AMD
KRNH 191449Z 1915/2012 23010G16KT P6SM SCT200
     FM200000 28006KT P6SM SKC
     FM200700 32004KT P6SM SKC=

USA.gov is the U.S. government's official web portal to all federal, state and local government web resources and services.